Time;durP1;ratioP1;P1;durP2;ratioP2;P2;SDS_P1;SDS_P2;PMS_P1;PMS_P2;Temp;Humidity;BMP_temperature;BMP_pressure;BME280_temperature;BME280_humidity;BME280_pressure;Samples;Min_cycle;Max_cycle;Signal;HPM_P1;HPM_P2
2023/03/23 00:02:02;;;;;;;;;;;;;;;29.10;73.89;100858.56;5044858;28;66633;-35
2023/03/23 00:04:30;;;;;;;;;;;;;;;29.11;73.98;100860.22;5041805;28;69996;-35
2023/03/23 00:07:02;;;;;;;;;;;;;;;29.12;73.63;100856.50;5046093;28;65733;-35
2023/03/23 00:09:34;;;;;;;;;;;;;;;29.15;73.87;100872.28;5040052;28;70433;-34
2023/03/23 00:12:06;;;;;;;;;;;;;;;29.15;74.29;100883.09;5079707;27;66546;-34
2023/03/23 00:14:41;;;;;;;;;;;;;;;29.18;74.19;100882.66;5040198;28;69481;-36
2023/03/23 00:17:10;;;;;;;;;;;;;;;29.19;70.73;100878.91;5043936;27;66393;-36
2023/03/23 00:19:47;;;;;;;;;;;;;;;29.24;69.84;100881.81;5045404;28;69569;-37
2023/03/23 00:22:16;;;;;;;;;;;;;;;29.28;68.79;100885.78;5043423;28;66120;-37
2023/03/23 00:24:44;;;;;;;;;;;;;;;29.32;68.41;100887.00;5043597;28;69878;-38
2023/03/23 00:27:14;;;;;;;;;;;;;;;29.36;68.00;100890.97;5046467;28;66669;-36
2023/03/23 00:29:44;;;;;;;;;;;;;;;29.39;67.60;100895.97;5041067;28;68939;-36
2023/03/23 00:32:16;;;;;;;;;;;;;;;29.43;66.73;100898.25;5023743;28;66263;-37
2023/03/23 00:34:47;;;;;;;;;;;;;;;29.47;66.53;100907.56;5041511;27;70624;-38
2023/03/23 00:37:17;;;;;;;;;;;;;;;29.49;66.57;100908.19;5038787;28;66036;-37
2023/03/23 00:39:46;;;;;;;;;;;;;;;29.50;66.41;100907.97;5037597;28;70240;-37
2023/03/23 00:42:16;;;;;;;;;;;;;;;29.54;65.89;100903.00;5037899;28;66515;-37
2023/03/23 00:44:45;;;;;;;;;;;;;;;29.56;65.60;100906.28;5038148;28;70557;-37
2023/03/23 00:47:14;;;;;;;;;;;;;;;29.59;65.56;100917.53;5038967;28;65624;-38
2023/03/23 00:49:42;;;;;;;;;;;;;;;29.60;65.55;100912.97;5042988;28;70786;-38
2023/03/23 00:52:11;;;;;;;;;;;;;;;29.62;65.20;100917.13;5041225;28;65666;-37
2023/03/23 00:54:40;;;;;;;;;;;;;;;29.64;64.99;100908.81;5043979;28;70684;-36
2023/03/23 00:57:09;;;;;;;;;;;;;;;29.65;64.81;100910.50;5046825;27;66748;-37
2023/03/23 00:59:37;;;;;;;;;;;;;;;29.67;64.19;100924.63;5037748;28;69462;-38
2023/03/23 01:02:06;;;;;;;;;;;;;;;29.70;64.32;100928.75;5067705;27;66318;-38
2023/03/23 01:04:38;;;;;;;;;;;;;;;29.71;64.10;100930.44;5041396;28;70287;-37
2023/03/23 01:07:08;;;;;;;;;;;;;;;29.72;64.17;100943.72;5037518;28;66345;-37
2023/03/23 01:09:39;;;;;;;;;;;;;;;29.75;63.88;100940.59;5038938;28;70368;-37
2023/03/23 01:12:07;;;;;;;;;;;;;;;29.77;64.34;100946.63;5040303;28;66074;-38
2023/03/23 01:14:35;;;;;;;;;;;;;;;29.77;64.00;100943.09;5046380;27;70308;-38
2023/03/23 01:17:04;;;;;;;;;;;;;;;29.79;63.93;100943.75;5058709;27;67319;-38
2023/03/23 01:19:37;;;;;;;;;;;;;;;29.81;63.96;100942.50;5047793;28;70577;-38
2023/03/23 01:22:05;;;;;;;;;;;;;;;29.83;63.46;100940.38;5054193;27;66594;-41
2023/03/23 01:24:34;;;;;;;;;;;;;;;29.84;63.59;100949.34;5047415;28;70374;-39
2023/03/23 01:27:06;;;;;;;;;;;;;;;29.87;63.04;100939.97;5043200;28;66927;-40
2023/03/23 01:29:34;;;;;;;;;;;;;;;29.88;63.54;100944.34;5031174;28;71128;-39
2023/03/23 01:35:28;;;;;;;;;;;;;;;29.92;62.65;100964.50;5052648;28;69508;-38
2023/03/23 01:37:56;;;;;;;;;;;;;;;29.94;63.04;100962.41;5061872;27;65803;-38
2023/03/23 01:40:26;;;;;;;;;;;;;;;29.96;63.06;100971.16;5046158;28;69265;-37
2023/03/23 01:42:55;;;;;;;;;;;;;;;29.98;62.62;100969.06;5043102;28;66319;-39
2023/03/23 01:45:30;;;;;;;;;;;;;;;29.99;62.54;100965.31;5045932;28;70543;-37
2023/03/23 01:48:00;;;;;;;;;;;;;;;30.01;62.56;100968.66;5081552;27;66805;-37
2023/03/23 01:50:35;;;;;;;;;;;;;;;30.02;62.17;100973.00;5079519;27;69745;-38
2023/03/23 01:53:08;;;;;;;;;;;;;;;30.05;62.58;100975.28;5045304;28;66339;-36
2023/03/23 01:55:40;;;;;;;;;;;;;;;30.06;62.42;100976.94;5029693;28;69164;-38
2023/03/23 01:58:09;;;;;;;;;;;;;;;30.08;61.81;100968.63;5040673;28;66373;-38
2023/03/23 02:00:40;;;;;;;;;;;;;;;30.09;61.81;100976.53;5042583;28;70319;-38
2023/03/23 02:03:10;;;;;;;;;;;;;;;30.12;62.23;100969.88;5077183;27;67645;-38
2023/03/23 02:05:39;;;;;;;;;;;;;;;30.13;61.72;100969.63;5044033;28;70586;-37
2023/03/23 02:08:18;;;;;;;;;;;;;;;30.15;61.88;100970.25;5044653;27;67095;-37
2023/03/23 02:10:47;;;;;;;;;;;;;;;30.19;61.60;100967.97;5028241;28;71091;-37
2023/03/23 02:13:16;;;;;;;;;;;;;;;30.20;61.97;100967.75;5064636;27;66018;-37
2023/03/23 02:15:52;;;;;;;;;;;;;;;30.23;61.71;100972.78;5078114;27;69791;-37
2023/03/23 02:18:30;;;;;;;;;;;;;;;30.25;61.87;100978.78;5060468;27;67142;-38
2023/03/23 02:21:21;;;;;;;;;;;;;;;30.28;61.79;100981.09;5051609;28;70119;-37
2023/03/23 02:24:08;;;;;;;;;;;;;;;30.31;61.53;100973.56;5045092;28;66232;-37
2023/03/23 02:26:55;;;;;;;;;;;;;;;30.33;60.97;100982.31;5047431;27;70506;-37
2023/03/23 02:29:30;;;;;;;;;;;;;;;30.36;61.55;100981.88;5050036;28;65661;-38
2023/03/23 02:32:05;;;;;;;;;;;;;;;30.39;61.22;100981.44;5080607;27;70145;-37
2023/03/23 02:34:56;;;;;;;;;;;;;;;30.41;61.35;100984.75;5051801;28;64853;-37
2023/03/23 02:37:29;;;;;;;;;;;;;;;30.44;60.95;100984.34;5042682;28;69805;-38
2023/03/23 02:40:17;;;;;;;;;;;;;;;30.46;61.22;100983.06;5075611;27;65278;-38
2023/03/23 02:42:47;;;;;;;;;;;;;;;30.50;60.75;100978.06;5043281;27;70016;-39
2023/03/23 02:45:17;;;;;;;;;;;;;;;30.53;61.12;100983.03;5046223;27;66687;-38
2023/03/23 02:47:47;;;;;;;;;;;;;;;30.55;60.51;100989.06;5041937;28;69382;-37
2023/03/23 02:50:16;;;;;;;;;;;;;;;30.58;60.48;100985.94;5048840;28;66921;-37
2023/03/23 02:52:45;;;;;;;;;;;;;;;30.61;60.88;100974.66;5046217;28;70310;-37
2023/03/23 02:55:15;;;;;;;;;;;;;;;30.64;60.46;100978.81;5044448;28;66689;-36
2023/03/23 02:57:45;;;;;;;;;;;;;;;30.66;60.52;100982.97;5047315;28;70245;-38
2023/03/23 03:00:18;;;;;;;;;;;;;;;30.70;60.88;100989.63;5047685;27;65747;-39
2023/03/23 03:02:52;;;;;;;;;;;;;;;30.73;60.64;100982.97;5045289;28;70035;-37
2023/03/23 03:05:31;;;;;;;;;;;;;;;30.76;60.31;100981.66;5047339;28;67358;-37
2023/03/23 03:08:09;;;;;;;;;;;;;;;30.80;60.66;100977.53;5046065;28;69674;-39
2023/03/23 03:10:52;;;;;;;;;;;;;;;30.83;60.45;100982.50;5081379;27;67201;-38
2023/03/23 03:13:50;;;;;;;;;;;;;;;30.88;60.12;100979.97;5073560;27;69873;-36
2023/03/23 03:16:49;;;;;;;;;;;;;;;30.91;60.15;100976.81;5051005;28;66814;-38
2023/03/23 03:19:19;;;;;;;;;;;;;;;30.94;60.04;100979.09;5048549;28;69436;-39
2023/03/23 03:21:48;;;;;;;;;;;;;;;30.97;60.35;100977.81;5044740;28;65846;-39
2023/03/23 03:24:24;;;;;;;;;;;;;;;31.01;59.82;100974.47;5044625;28;70873;-39
2023/03/23 03:26:57;;;;;;;;;;;;;;;31.04;59.89;100963.19;5049129;28;66489;-37
2023/03/23 03:29:35;;;;;;;;;;;;;;;31.07;59.91;100962.75;5045615;28;69732;-38
2023/03/23 03:32:06;;;;;;;;;;;;;;;31.10;59.79;100965.03;5078142;27;66004;-38
2023/03/23 03:34:34;;;;;;;;;;;;;;;31.13;59.59;100961.88;5073758;27;69544;-38
2023/03/23 03:37:05;;;;;;;;;;;;;;;31.16;59.84;100953.28;5046440;28;65064;-37
2023/03/23 03:39:36;;;;;;;;;;;;;;;31.21;59.57;100957.25;5048461;27;70741;-38
2023/03/23 03:42:05;;;;;;;;;;;;;;;31.23;59.16;100955.13;5025956;28;65937;-37
2023/03/23 03:44:35;;;;;;;;;;;;;;;31.26;59.11;100957.38;5042174;28;70341;-37
2023/03/23 03:47:03;;;;;;;;;;;;;;;31.28;59.13;100953.41;5075975;27;66484;-39
2023/03/23 03:49:32;;;;;;;;;;;;;;;31.31;58.77;100950.25;5041343;28;70786;-38
2023/03/23 03:52:01;;;;;;;;;;;;;;;31.33;58.84;100950.88;5047791;28;66533;-37
2023/03/23 03:54:42;;;;;;;;;;;;;;;31.38;58.91;100944.81;5081837;27;70504;-39
2023/03/23 03:57:11;;;;;;;;;;;;;;;31.40;58.96;100934.59;5042141;28;66667;-39
2023/03/23 04:00:15;;;;;;;;;;;;;;;31.44;58.82;100929.53;5046638;28;70059;-39
2023/03/23 04:02:54;;;;;;;;;;;;;;;31.47;58.93;100931.81;5044437;28;66351;-38
2023/03/23 04:05:37;;;;;;;;;;;;;;;31.50;58.47;100929.47;5049551;28;71164;-40
2023/03/23 04:08:05;;;;;;;;;;;;;;;31.54;58.20;100925.28;5071344;27;66455;-38
2023/03/23 04:10:34;;;;;;;;;;;;;;;31.56;58.07;100923.16;5061244;27;69767;-39
2023/03/23 04:13:04;;;;;;;;;;;;;;;31.58;58.21;100912.91;5051223;28;66966;-38
2023/03/23 04:15:41;;;;;;;;;;;;;;;31.60;58.02;100913.53;5049617;28;69781;-38
2023/03/23 04:18:10;;;;;;;;;;;;;;;31.64;57.99;100902.22;5049093;27;65970;-38
2023/03/23 04:20:39;;;;;;;;;;;;;;;31.66;57.78;100894.69;5075296;27;70109;-38
2023/03/23 04:23:07;;;;;;;;;;;;;;;31.69;57.46;100899.66;5075913;27;67646;-39
2023/03/23 04:25:36;;;;;;;;;;;;;;;31.73;57.63;100898.16;5044593;28;71138;-39
2023/03/23 04:28:06;;;;;;;;;;;;;;;31.74;57.49;100891.69;5048595;28;66504;-39
2023/03/23 04:30:42;;;;;;;;;;;;;;;31.76;57.48;100881.41;5083541;27;70061;-38
2023/03/23 04:33:15;;;;;;;;;;;;;;;31.78;57.23;100882.84;5033329;28;66380;-37
2023/03/23 04:35:48;;;;;;;;;;;;;;;31.81;56.89;100878.88;5085340;27;69524;-39
2023/03/23 04:38:32;;;;;;;;;;;;;;;31.82;56.97;100875.13;5056130;27;67138;-39
2023/03/23 04:41:06;;;;;;;;;;;;;;;31.85;57.02;100866.53;5046258;28;70311;-40
2023/03/23 04:43:56;;;;;;;;;;;;;;;31.88;57.00;100857.94;5040883;28;67048;-38
2023/03/23 04:46:31;;;;;;;;;;;;;;;31.90;56.72;100853.09;5069339;27;71259;-38
2023/03/23 04:49:06;;;;;;;;;;;;;;;31.92;56.78;100855.59;5050299;28;66626;-37
2023/03/23 04:51:39;;;;;;;;;;;;;;;31.94;56.64;100842.66;5052434;28;70124;-37
2023/03/23 04:54:28;;;;;;;;;;;;;;;31.96;56.41;100846.78;5048098;28;65643;-38
2023/03/23 04:57:00;;;;;;;;;;;;;;;31.99;56.61;100840.91;5071314;27;70283;-38
2023/03/23 04:59:30;;;;;;;;;;;;;;;32.01;56.26;100836.09;5046167;27;67248;-38
2023/03/23 05:02:06;;;;;;;;;;;;;;;32.03;56.27;100831.25;5038681;28;69635;-41
2023/03/23 05:04:37;;;;;;;;;;;;;;;32.05;56.20;100823.72;5041052;28;64550;-38
2023/03/23 05:07:11;;;;;;;;;;;;;;;32.10;56.17;100824.91;5070770;27;69440;-40
2023/03/23 05:09:47;;;;;;;;;;;;;;;32.11;55.99;100807.56;5047789;28;66391;-38
2023/03/23 05:12:16;;;;;;;;;;;;;;;32.14;55.94;100810.63;5039901;28;67957;-38
2023/03/23 05:14:58;;;;;;;;;;;;;;;32.16;55.65;100805.81;5072983;27;66727;-38
2023/03/23 05:17:30;;;;;;;;;;;;;;;32.17;55.90;100804.75;5071886;27;69230;-38
2023/03/23 05:20:01;;;;;;;;;;;;;;;32.21;55.63;100786.13;5072570;27;65776;-41
2023/03/23 05:22:39;;;;;;;;;;;;;;;32.23;55.64;100787.56;5045774;28;70288;-38
2023/03/23 05:25:08;;;;;;;;;;;;;;;32.27;55.44;100785.19;5054223;27;65712;-39
2023/03/23 05:27:48;;;;;;;;;;;;;;;32.29;55.48;100780.38;5070838;27;69751;-40
2023/03/23 05:30:23;;;;;;;;;;;;;;;32.31;55.48;100767.38;5051258;27;66278;-36
2023/03/23 05:32:51;;;;;;;;;;;;;;;32.34;55.16;100777.78;5070866;27;70503;-40
2023/03/23 05:35:36;;;;;;;;;;;;;;;32.36;55.14;100770.22;5036426;28;66402;-39
2023/03/23 05:38:04;;;;;;;;;;;;;;;32.38;55.05;100767.28;5040757;27;70563;-38
2023/03/23 05:40:33;;;;;;;;;;;;;;;32.40;54.92;100755.13;5040917;28;67058;-39
2023/03/23 05:43:14;;;;;;;;;;;;;;;32.42;55.03;100747.56;5075642;27;69872;-37
2023/03/23 05:46:02;;;;;;;;;;;;;;;32.45;54.84;100744.38;5044953;28;66127;-38
2023/03/23 05:48:31;;;;;;;;;;;;;;;32.49;54.66;100742.91;5041746;28;70338;-38
2023/03/23 05:50:59;;;;;;;;;;;;;;;32.51;54.68;100736.41;5072030;27;66456;-38
2023/03/23 05:53:30;;;;;;;;;;;;;;;32.53;54.63;100739.72;5077931;27;70724;-38
2023/03/23 05:56:00;;;;;;;;;;;;;;;32.57;54.59;100730.00;5043121;28;66096;-37
2023/03/23 05:58:46;;;;;;;;;;;;;;;32.60;54.62;100721.44;5043506;28;70269;-39
2023/03/23 06:01:16;;;;;;;;;;;;;;;32.63;54.21;100721.78;5050427;27;65776;-39
2023/03/23 06:03:45;;;;;;;;;;;;;;;32.66;54.15;100709.63;5048093;28;69516;-38
2023/03/23 06:06:26;;;;;;;;;;;;;;;32.69;54.06;100704.53;5051313;28;66789;-38
2023/03/23 06:09:06;;;;;;;;;;;;;;;32.72;54.15;100697.78;5048371;28;70462;-37
2023/03/23 06:12:04;;;;;;;;;;;;;;;32.76;53.96;100692.72;5051395;28;66448;-38
2023/03/23 06:14:49;;;;;;;;;;;;;;;32.81;53.95;100692.81;5048510;28;70776;-38
2023/03/23 06:17:26;;;;;;;;;;;;;;;32.82;53.81;100687.16;5082619;27;66143;-39
2023/03/23 06:19:55;;;;;;;;;;;;;;;32.84;53.78;100679.59;5056232;27;69481;-39
2023/03/23 06:22:23;;;;;;;;;;;;;;;32.88;53.55;100677.22;5052282;28;65770;-38
2023/03/23 06:25:11;;;;;;;;;;;;;;;32.90;53.45;100666.94;5051925;27;70678;-38
2023/03/23 06:27:42;;;;;;;;;;;;;;;32.93;53.52;100667.31;5051879;27;65726;-39
2023/03/23 06:30:10;;;;;;;;;;;;;;;32.72;53.33;100619.03;5045264;28;69161;-39
2023/03/23 06:32:38;;;;;;;;;;;;;;;32.98;53.29;100652.97;5053624;28;67395;-39
2023/03/23 06:35:11;;;;;;;;;;;;;;;33.04;53.20;100656.66;5051845;28;69215;-39
2023/03/23 06:38:01;;;;;;;;;;;;;;;33.08;53.24;100652.41;5046300;28;66478;-38
2023/03/23 06:40:37;;;;;;;;;;;;;;;33.10;53.05;100650.28;5045082;28;70564;-39
2023/03/23 06:43:05;;;;;;;;;;;;;;;33.13;52.92;100650.63;5048968;28;66695;-37
2023/03/23 06:45:43;;;;;;;;;;;;;;;33.15;52.75;100648.50;5044559;28;69348;-37
2023/03/23 06:48:30;;;;;;;;;;;;;;;33.20;52.78;100645.03;5058236;27;65779;-39
2023/03/23 06:50:58;;;;;;;;;;;;;;;33.21;53.04;100635.81;5046000;28;70926;-38
2023/03/23 06:53:28;;;;;;;;;;;;;;;33.24;52.58;100629.91;5052501;28;65706;-39
2023/03/23 06:55:59;;;;;;;;;;;;;;;33.25;52.50;100620.66;5083190;27;70921;-37
2023/03/23 06:58:29;;;;;;;;;;;;;;;33.27;52.48;100623.16;5048990;28;66291;-37
2023/03/23 07:00:58;;;;;;;;;;;;;;;33.27;52.47;100618.53;5061001;28;70028;-38
2023/03/23 07:03:40;;;;;;;;;;;;;;;33.32;52.44;100613.22;5039072;28;65850;-37
2023/03/23 07:06:11;;;;;;;;;;;;;;;33.34;52.45;100608.31;5073742;27;69415;-41
2023/03/23 07:08:48;;;;;;;;;;;;;;;33.38;52.37;100608.69;5029108;28;66305;-37
2023/03/23 07:11:22;;;;;;;;;;;;;;;33.40;52.28;100603.81;5076579;27;69267;-39
2023/03/23 07:13:50;;;;;;;;;;;;;;;33.43;52.22;100600.59;5046025;28;65809;-38
2023/03/23 07:16:19;;;;;;;;;;;;;;;33.47;51.97;100596.34;5079144;27;69423;-38
2023/03/23 07:18:48;;;;;;;;;;;;;;;33.50;51.94;100600.47;5058086;28;65897;-39
2023/03/23 07:21:16;;;;;;;;;;;;;;;33.53;52.13;100595.38;5045400;28;69037;-38
2023/03/23 07:23:46;;;;;;;;;;;;;;;33.58;51.81;100597.38;5044402;27;66035;-38
2023/03/23 07:26:22;;;;;;;;;;;;;;;33.61;51.81;100591.44;5035315;28;69045;-37
2023/03/23 07:28:55;;;;;;;;;;;;;;;33.66;52.13;100583.38;5079247;27;66860;-38
2023/03/23 07:31:34;;;;;;;;;;;;;;;33.68;51.64;100575.75;5047914;28;70075;-40
2023/03/23 07:34:03;;;;;;;;;;;;;;;33.70;51.85;100579.06;5046903;28;66363;-39
2023/03/23 07:36:46;;;;;;;;;;;;;;;33.72;51.78;100571.50;5046330;28;70893;-38
2023/03/23 07:39:15;;;;;;;;;;;;;;;33.75;51.95;100565.56;5049259;28;65836;-37
2023/03/23 07:41:44;;;;;;;;;;;;;;;33.78;51.56;100565.06;5041833;27;70712;-37
2023/03/23 07:44:22;;;;;;;;;;;;;;;33.84;51.83;100562.44;5072244;27;66198;-38
2023/03/23 07:46:52;;;;;;;;;;;;;;;33.88;51.47;100558.97;5046740;28;70804;-37
2023/03/23 07:49:30;;;;;;;;;;;;;;;33.93;51.36;100566.38;5038490;27;66802;-39
2023/03/23 07:52:13;;;;;;;;;;;;;;;33.96;51.35;100557.69;5041487;28;70265;-37
2023/03/23 07:54:42;;;;;;;;;;;;;;;34.00;51.40;100558.88;5039205;28;66172;-39
2023/03/23 07:57:49;;;;;;;;;;;;;;;34.05;51.49;100556.25;5061340;28;69184;-38
2023/03/23 08:00:23;;;;;;;;;;;;;;;34.08;51.23;100547.59;5041743;28;65523;-39
2023/03/23 08:02:56;;;;;;;;;;;;;;;34.12;51.24;100548.72;5041705;27;70521;-39
2023/03/23 08:05:33;;;;;;;;;;;;;;;34.16;51.29;100543.63;5038714;27;66447;-40
2023/03/23 08:08:23;;;;;;;;;;;;;;;34.20;51.00;100542.84;5047298;28;69921;-38
2023/03/23 08:11:00;;;;;;;;;;;;;;;34.24;51.14;100544.00;5046343;28;66455;-41
2023/03/23 08:13:50;;;;;;;;;;;;;;;34.29;51.14;100536.97;5024875;28;69695;-38
2023/03/23 08:16:41;;;;;;;;;;;;;;;34.32;50.59;100548.19;5035691;28;68122;-38
2023/03/23 08:19:12;;;;;;;;;;;;;;;34.37;50.91;100533.81;5040664;28;70281;-38
2023/03/23 08:22:03;;;;;;;;;;;;;;;34.40;50.41;100538.75;5045559;28;65609;-38
2023/03/23 08:24:37;;;;;;;;;;;;;;;34.45;50.46;100536.09;5043060;28;70621;-38
2023/03/23 08:27:24;;;;;;;;;;;;;;;34.50;50.68;100538.06;5039899;28;66183;-38
2023/03/23 08:30:11;;;;;;;;;;;;;;;34.53;50.20;100526.66;5040688;28;69937;-39
2023/03/23 08:33:00;;;;;;;;;;;;;;;34.58;50.57;100532.22;5055866;28;64838;-38
2023/03/23 08:35:38;;;;;;;;;;;;;;;34.62;50.50;100536.88;5044153;28;70306;-38
2023/03/23 08:38:28;;;;;;;;;;;;;;;34.66;50.24;100526.31;5049715;28;65672;-38
2023/03/23 08:41:15;;;;;;;;;;;;;;;34.69;50.38;100526.63;5040162;28;70458;-39
2023/03/23 08:44:13;;;;;;;;;;;;;;;34.75;49.78;100529.41;5039211;28;66167;-38
2023/03/23 08:47:04;;;;;;;;;;;;;;;34.81;49.74;100525.66;5076895;27;69375;-38
2023/03/23 08:49:53;;;;;;;;;;;;;;;34.85;50.09;100516.72;5042457;28;66125;-38
2023/03/23 08:52:52;;;;;;;;;;;;;;;34.89;49.62;100526.03;5062607;27;69976;-37
2023/03/23 08:55:39;;;;;;;;;;;;;;;34.94;49.49;100522.53;5039746;28;60096;-37
2023/03/23 08:58:26;;;;;;;;;;;;;;;34.97;49.70;100527.47;5037712;28;69725;-41
2023/03/23 09:01:00;;;;;;;;;;;;;;;35.01;49.51;100528.59;5042688;28;65675;-41
2023/03/23 09:03:48;;;;;;;;;;;;;;;35.05;49.18;100527.00;5050960;28;70179;-41
2023/03/23 09:06:36;;;;;;;;;;;;;;;35.07;49.52;100522.13;5050466;28;66950;-43
2023/03/23 09:09:06;;;;;;;;;;;;;;;35.13;49.45;100540.22;5049640;28;69655;-38
2023/03/23 09:11:35;;;;;;;;;;;;;;;35.17;49.34;100526.06;5031867;27;65548;-38
2023/03/23 09:14:04;;;;;;;;;;;;;;;35.20;48.74;100533.72;5045773;28;70647;-38
2023/03/23 09:16:33;;;;;;;;;;;;;;;35.24;48.92;100532.09;5049675;28;65471;-38
2023/03/23 09:19:02;;;;;;;;;;;;;;;34.88;49.19;100523.53;5046968;28;70215;-38
2023/03/23 09:21:30;;;;;;;;;;;;;;;34.75;48.88;100534.88;5048498;28;66339;-37
2023/03/23 09:23:59;;;;;;;;;;;;;;;34.60;49.27;100522.72;5042305;28;69450;-36
2023/03/23 09:26:27;;;;;;;;;;;;;;;34.54;49.25;100534.56;5030827;28;66658;-37
2023/03/23 09:28:56;;;;;;;;;;;;;;;34.47;49.69;100533.97;5046497;27;69959;-37
2023/03/23 09:31:28;;;;;;;;;;;;;;;34.42;49.78;100542.88;5050779;28;66204;-37
2023/03/23 09:33:56;;;;;;;;;;;;;;;34.37;50.05;100540.09;5055613;28;70470;-38
2023/03/23 09:36:25;;;;;;;;;;;;;;;34.55;50.24;100530.78;5056453;27;66132;-37
2023/03/23 09:38:54;;;;;;;;;;;;;;;34.74;49.85;100533.19;5029150;28;69945;-38
2023/03/23 09:41:38;;;;;;;;;;;;;;;34.87;49.99;100532.81;5089216;27;66207;-38
2023/03/23 09:44:22;;;;;;;;;;;;;;;34.98;49.47;100534.56;5077091;27;70074;-39
2023/03/23 09:47:05;;;;;;;;;;;;;;;35.06;49.74;100525.94;5022547;28;66311;-37
2023/03/23 09:49:53;;;;;;;;;;;;;;;35.12;48.89;100527.66;5044821;28;69247;-38
2023/03/23 09:52:21;;;;;;;;;;;;;;;35.19;49.09;100540.25;5050997;28;67058;-40
2023/03/23 09:54:51;;;;;;;;;;;;;;;35.23;48.75;100535.94;5047401;28;70875;-41
2023/03/23 09:57:26;;;;;;;;;;;;;;;35.25;48.74;100533.78;5047220;28;66401;-38
2023/03/23 10:00:04;;;;;;;;;;;;;;;35.30;48.98;100536.53;5041351;28;69517;-39
2023/03/23 10:02:46;;;;;;;;;;;;;;;35.30;48.99;100534.66;5050838;28;66298;-39
2023/03/23 10:05:21;;;;;;;;;;;;;;;35.33;48.95;100525.13;5084651;27;69635;-38
2023/03/23 10:07:49;;;;;;;;;;;;;;;35.34;48.36;100524.03;5053183;27;66887;-39
2023/03/23 10:10:18;;;;;;;;;;;;;;;35.36;48.73;100530.06;5050530;27;69574;-39
2023/03/23 10:13:11;;;;;;;;;;;;;;;35.37;48.22;100531.69;5050883;28;66718;-41
2023/03/23 10:15:40;;;;;;;;;;;;;;;34.94;49.00;100538.88;5046969;28;70452;-39
2023/03/23 10:18:33;;;;;;;;;;;;;;;34.75;49.89;100540.31;5044535;28;66976;-39
2023/03/23 10:21:03;;;;;;;;;;;;;;;34.65;50.01;100535.56;5051447;27;70251;-41
2023/03/23 10:23:37;;;;;;;;;;;;;;;34.59;50.85;100537.38;5047405;28;66004;-40
2023/03/23 10:26:28;;;;;;;;;;;;;;;34.51;51.10;100537.00;5042595;28;70268;-40
2023/03/23 10:29:17;;;;;;;;;;;;;;;34.44;52.19;100546.19;5042353;27;68598;-42
2023/03/23 10:31:50;;;;;;;;;;;;;;;34.40;51.46;100533.31;5047373;28;70913;-39
2023/03/23 10:34:30;;;;;;;;;;;;;;;34.35;51.03;100542.25;5042056;27;67018;-38
2023/03/23 10:37:06;;;;;;;;;;;;;;;34.28;50.77;100551.66;5048751;28;69802;-38
2023/03/23 10:39:41;;;;;;;;;;;;;;;34.23;51.01;100542.34;5040516;27;66859;-40
2023/03/23 10:42:09;;;;;;;;;;;;;;;34.16;51.33;100549.06;5044275;28;70285;-38
2023/03/23 10:44:38;;;;;;;;;;;;;;;34.19;51.98;100548.56;5048433;27;66342;-40
2023/03/23 10:47:08;;;;;;;;;;;;;;;34.16;52.81;100541.72;5039519;28;70032;-39
2023/03/23 10:49:45;;;;;;;;;;;;;;;34.18;53.39;100542.28;5043080;28;66184;-41
2023/03/23 10:52:14;;;;;;;;;;;;;;;34.43;52.75;100541.78;5040080;28;69968;-39
2023/03/23 10:55:11;;;;;;;;;;;;;;;34.57;52.31;100544.16;5039866;28;65700;-41
2023/03/23 10:57:41;;;;;;;;;;;;;;;34.64;51.64;100534.72;5051937;27;69164;-41
2023/03/23 11:00:16;;;;;;;;;;;;;;;34.72;51.63;100538.91;5042899;28;66955;-42
2023/03/23 11:02:47;;;;;;;;;;;;;;;34.76;51.32;100541.94;5040624;28;70082;-43
2023/03/23 11:05:20;;;;;;;;;;;;;;;34.78;51.09;100537.88;5059658;27;66339;-40
2023/03/23 11:07:56;;;;;;;;;;;;;;;34.80;50.58;100546.66;5046565;28;69714;-40
2023/03/23 11:10:47;;;;;;;;;;;;;;;34.80;50.65;100551.25;5040294;27;65517;-41
2023/03/23 11:13:17;;;;;;;;;;;;;;;34.79;50.85;100549.59;5045242;28;69446;-41
2023/03/23 11:15:46;;;;;;;;;;;;;;;34.79;50.56;100546.88;5041235;28;66945;-43
2023/03/23 11:18:26;;;;;;;;;;;;;;;34.78;50.63;100550.69;5042214;27;70696;-40
2023/03/23 11:20:58;;;;;;;;;;;;;;;34.75;50.42;100557.47;5039409;28;66473;-39
2023/03/23 11:23:48;;;;;;;;;;;;;;;34.75;50.36;100559.38;5045616;28;70345;-41
2023/03/23 11:26:20;;;;;;;;;;;;;;;34.74;50.65;100560.44;5055196;27;65923;-41
2023/03/23 11:28:51;;;;;;;;;;;;;;;34.70;50.65;100563.69;5048588;28;69230;-40
2023/03/23 11:34:41;;;;;;;;;;;;;;;34.67;50.81;100568.81;5047131;27;70829;-44
2023/03/23 11:37:17;;;;;;;;;;;;;;;34.65;50.52;100571.78;5051681;28;66018;-42
2023/03/23 11:39:47;;;;;;;;;;;;;;;34.63;50.42;100565.78;5049700;28;70095;-40
2023/03/23 11:42:22;;;;;;;;;;;;;;;34.61;50.55;100572.56;5038453;27;64993;-39
2023/03/23 11:44:52;;;;;;;;;;;;;;;34.58;50.50;100582.06;5038804;28;69911;-41
2023/03/23 11:47:37;;;;;;;;;;;;;;;34.55;50.85;100585.25;5048113;28;66280;-41
2023/03/23 11:50:10;;;;;;;;;;;;;;;34.52;50.60;100588.50;5046972;28;70136;-40
2023/03/23 11:52:45;;;;;;;;;;;;;;;34.51;50.56;100586.00;5088036;27;66788;-39
2023/03/23 11:55:21;;;;;;;;;;;;;;;34.48;50.94;100590.88;5048722;28;70702;-39
2023/03/23 11:57:49;;;;;;;;;;;;;;;34.44;50.87;100586.22;5034122;28;66639;-40
2023/03/23 12:00:22;;;;;;;;;;;;;;;34.41;51.10;100584.00;5046423;28;70368;-40
2023/03/23 12:02:59;;;;;;;;;;;;;;;34.40;51.39;100577.69;5047974;28;65863;-43
2023/03/23 12:05:28;;;;;;;;;;;;;;;34.38;51.61;100584.47;5044444;28;70353;-41
2023/03/23 12:08:16;;;;;;;;;;;;;;;34.36;51.64;100583.91;5051932;27;67445;-41
2023/03/23 12:10:45;;;;;;;;;;;;;;;34.32;51.58;100580.03;5062735;27;70618;-39
2023/03/23 12:13:26;;;;;;;;;;;;;;;34.30;52.11;100576.72;5032401;28;66524;-40
2023/03/23 12:16:17;;;;;;;;;;;;;;;34.26;51.87;100576.41;5046774;27;70379;-40
2023/03/23 12:19:10;;;;;;;;;;;;;;;34.23;52.44;100585.91;5046583;27;66738;-40
2023/03/23 12:21:42;;;;;;;;;;;;;;;34.21;52.55;100596.25;5031168;28;70713;-39
2023/03/23 12:24:45;;;;;;;;;;;;;;;34.19;52.38;100586.66;5053745;28;66583;-41
2023/03/23 12:27:25;;;;;;;;;;;;;;;34.17;52.86;100589.63;5041391;28;69175;-42
2023/03/23 12:29:53;;;;;;;;;;;;;;;34.13;53.05;100593.94;5043905;28;66026;-42
2023/03/23 12:32:44;;;;;;;;;;;;;;;34.12;52.84;100596.91;5070672;27;70244;-44
2023/03/23 12:35:12;;;;;;;;;;;;;;;34.09;53.21;100597.41;5037709;27;66391;-42
2023/03/23 12:37:43;;;;;;;;;;;;;;;33.91;54.57;100607.44;5048344;28;70085;-41
2023/03/23 12:40:23;;;;;;;;;;;;;;;33.71;55.95;100607.09;5048339;28;65960;-42
2023/03/23 12:42:55;;;;;;;;;;;;;;;33.57;57.50;100606.59;5046839;28;70827;-43
2023/03/23 12:45:28;;;;;;;;;;;;;;;33.47;58.74;100609.09;5078931;27;66362;-42
2023/03/23 12:48:09;;;;;;;;;;;;;;;33.40;59.83;100605.72;5039767;28;69355;-43
2023/03/23 12:50:57;;;;;;;;;;;;;;;33.33;59.95;100619.47;5047298;28;66547;-45
2023/03/23 12:53:52;;;;;;;;;;;;;;;33.27;60.63;100623.97;5045066;28;70058;-41
2023/03/23 12:56:24;;;;;;;;;;;;;;;33.19;61.21;100621.66;5028479;28;66443;-42
2023/03/23 12:58:58;;;;;;;;;;;;;;;33.00;61.00;100629.16;5048275;27;71301;-42
2023/03/23 13:01:39;;;;;;;;;;;;;;;32.88;61.32;100631.06;5041055;28;66626;-41
2023/03/23 13:04:13;;;;;;;;;;;;;;;32.82;61.40;100621.97;5046308;28;69342;-40
2023/03/23 13:06:42;;;;;;;;;;;;;;;32.71;62.03;100633.69;5043294;28;66585;-40
2023/03/23 13:09:23;;;;;;;;;;;;;;;32.67;62.14;100637.94;5052257;28;70439;-40
2023/03/23 13:11:53;;;;;;;;;;;;;;;32.65;62.52;100642.75;5057555;27;67361;-37
2023/03/23 13:14:37;;;;;;;;;;;;;;;32.57;62.65;100641.25;5051162;28;70331;-41
2023/03/23 13:17:18;;;;;;;;;;;;;;;32.52;63.06;100643.03;5054480;28;66469;-37
2023/03/23 13:20:06;;;;;;;;;;;;;;;32.47;63.37;100641.84;5058415;28;70028;-38
2023/03/23 13:22:53;;;;;;;;;;;;;;;32.49;63.47;100645.16;5041793;28;66283;-41
2023/03/23 13:25:32;;;;;;;;;;;;;;;32.44;63.39;100647.72;5048519;28;69299;-42